createdAt,value
2017-08-13T00:01:28.914Z,101295.97
2017-08-13T00:03:58.230Z,101294.77
2017-08-13T00:06:26.571Z,101296.11
2017-08-13T00:08:55.711Z,101299.73
2017-08-13T00:11:24.388Z,101289.48
2017-08-13T00:13:52.756Z,101299.11
2017-08-13T00:16:21.110Z,101303.02
2017-08-13T00:18:49.834Z,101307.40
2017-08-13T00:21:18.220Z,101311.85
2017-08-13T00:23:46.574Z,101312.88
2017-08-13T00:26:15.574Z,101308.75
2017-08-13T00:28:43.950Z,101312.50
2017-08-13T00:31:12.311Z,101320.44
2017-08-13T00:33:41.201Z,101318.09
2017-08-13T00:36:09.570Z,101325.03
2017-08-13T00:38:38.700Z,101326.50
2017-08-13T00:41:07.463Z,101322.80
2017-08-13T00:43:35.807Z,101322.89
2017-08-13T00:46:04.151Z,101322.19
2017-08-13T00:48:33.318Z,101317.95
2017-08-13T00:51:01.658Z,101318.70
2017-08-13T00:53:30.032Z,101313.72
2017-08-13T00:55:58.650Z,101316.69
2017-08-13T00:58:27.776Z,101317.98
2017-08-13T01:00:56.141Z,101318.61
2017-08-13T01:03:24.854Z,101311.19
2017-08-13T01:05:53.206Z,101319.41
2017-08-13T01:08:22.335Z,101315.54
2017-08-13T01:10:51.158Z,101321.46
2017-08-13T01:13:19.523Z,101326.23
2017-08-13T01:15:47.872Z,101323.94
2017-08-13T01:18:16.777Z,101329.29
2017-08-13T01:20:45.128Z,101339.97
2017-08-13T01:23:13.461Z,101336.19
2017-08-13T01:25:42.433Z,101336.77
2017-08-13T01:28:10.791Z,101343.84
2017-08-13T01:30:39.144Z,101346.39
2017-08-13T01:33:08.091Z,101341.15
2017-08-13T01:35:36.447Z,101346.07
2017-08-13T01:38:04.797Z,101346.05
2017-08-13T01:40:33.446Z,101343.80
2017-08-13T01:43:01.800Z,101345.00
2017-08-13T01:45:30.181Z,101337.63
2017-08-13T01:47:58.849Z,101339.48
2017-08-13T01:50:27.229Z,101345.09
2017-08-13T01:52:55.573Z,101335.14
2017-08-13T01:55:24.455Z,101341.83
2017-08-13T01:57:52.806Z,101343.78
2017-08-13T02:00:21.191Z,101344.53
2017-08-13T02:02:49.803Z,101355.13
2017-08-13T02:05:18.176Z,101355.48
2017-08-13T02:07:46.514Z,101354.75
2017-08-13T02:10:15.196Z,101358.55
2017-08-13T02:12:43.561Z,101351.78
2017-08-13T02:15:11.914Z,101350.97
2017-08-13T02:17:40.698Z,101353.73
2017-08-13T02:20:09.080Z,101343.75
2017-08-13T02:22:38.203Z,101355.92
2017-08-13T02:25:06.907Z,101350.78
2017-08-13T02:27:35.304Z,101353.72
2017-08-13T02:30:03.682Z,101353.16
2017-08-13T02:32:32.702Z,101358.23
2017-08-13T02:35:01.054Z,101358.14
2017-08-13T02:37:29.435Z,101360.70
2017-08-13T02:39:58.220Z,101368.84
2017-08-13T02:42:26.588Z,101359.04
2017-08-13T02:44:54.950Z,101369.26
2017-08-13T02:47:23.769Z,101364.65
2017-08-13T02:49:52.168Z,101377.99
2017-08-13T02:52:20.520Z,101370.55
2017-08-13T02:54:49.373Z,101372.25
2017-08-13T02:57:17.743Z,101374.55
2017-08-13T02:59:46.844Z,101380.86
2017-08-13T03:02:16.469Z,101380.83
2017-08-13T03:04:44.850Z,101373.38
2017-08-13T03:07:13.250Z,101385.97
2017-08-13T03:09:41.922Z,101383.14
2017-08-13T03:12:10.261Z,101384.47
2017-08-13T03:14:39.373Z,101380.50
2017-08-13T03:17:08.201Z,101374.98
2017-08-13T03:19:36.541Z,101379.82
2017-08-13T03:22:04.918Z,101384.78
2017-08-13T03:24:33.693Z,101384.81
2017-08-13T03:27:02.074Z,101391.89
2017-08-13T03:29:30.430Z,101391.82
2017-08-13T03:31:59.108Z,101392.98
2017-08-13T03:34:27.500Z,101396.43
2017-08-13T03:36:55.852Z,101404.16
2017-08-13T03:39:24.722Z,101408.75
2017-08-13T03:41:53.072Z,101402.90
2017-08-13T03:44:22.218Z,101410.69
2017-08-13T03:46:50.916Z,101410.39
2017-08-13T03:49:19.277Z,101414.59
2017-08-13T03:51:47.655Z,101416.58
2017-08-13T03:54:16.379Z,101415.31
2017-08-13T03:56:44.733Z,101417.43
2017-08-13T03:59:13.069Z,101423.89
2017-08-13T04:01:41.854Z,101426.39
2017-08-13T04:04:10.204Z,101428.84
2017-08-13T04:06:38.556Z,101424.78
2017-08-13T04:09:07.226Z,101437.72
2017-08-13T04:11:35.615Z,101437.05
2017-08-13T04:14:03.980Z,101442.81
2017-08-13T04:16:32.640Z,101452.16
2017-08-13T04:19:00.990Z,101448.53
2017-08-13T04:21:29.365Z,101450.36
2017-08-13T04:23:58.213Z,101455.13
2017-08-13T04:26:26.566Z,101456.41
2017-08-13T04:28:55.694Z,101452.87
2017-08-13T04:31:24.484Z,101458.98
2017-08-13T04:33:52.826Z,101463.87
2017-08-13T04:36:21.169Z,101468.82
2017-08-13T04:38:49.924Z,101471.52
2017-08-13T04:41:18.290Z,101471.97
2017-08-13T04:43:46.670Z,101476.03
2017-08-13T04:46:15.304Z,101480.41
2017-08-13T04:48:43.674Z,101486.06
2017-08-13T04:51:12.067Z,101496.39
2017-08-13T04:53:40.874Z,101501.84
2017-08-13T04:56:09.246Z,101496.80
2017-08-13T04:58:37.573Z,101503.08
2017-08-13T05:01:06.278Z,101506.05
2017-08-13T05:03:34.636Z,101506.14
2017-08-13T05:06:02.997Z,101513.41
2017-08-13T05:08:31.907Z,101519.78
2017-08-13T05:11:00.264Z,101523.69
2017-08-13T05:13:29.391Z,101527.05
2017-08-13T05:15:58.376Z,101528.37
2017-08-13T05:18:26.737Z,101529.17
2017-08-13T05:20:55.878Z,101532.42
2017-08-13T05:23:24.514Z,101537.90
2017-08-13T05:25:53.651Z,101534.68
2017-08-13T05:28:22.011Z,101532.61
2017-08-13T05:30:50.869Z,101540.20
2017-08-13T05:33:19.228Z,101542.68
2017-08-13T05:35:47.592Z,101547.52
2017-08-13T05:38:16.358Z,101546.01
2017-08-13T05:40:44.740Z,101553.50
2017-08-13T05:43:13.104Z,101554.64
2017-08-13T05:45:41.824Z,101556.69
2017-08-13T05:48:10.173Z,101561.47
2017-08-13T05:50:38.533Z,101565.49
2017-08-13T05:53:07.486Z,101571.02
2017-08-13T05:55:35.852Z,101568.95
2017-08-13T05:58:04.209Z,101571.17
2017-08-13T06:00:33.305Z,101573.03
2017-08-13T06:03:01.650Z,101584.80
2017-08-13T06:05:30.769Z,101585.89
2017-08-13T06:07:59.416Z,101585.77
2017-08-13T06:10:27.790Z,101588.78
2017-08-13T06:12:56.189Z,101595.73
2017-08-13T06:15:25.624Z,101598.96
2017-08-13T06:17:54.003Z,101602.86
2017-08-13T06:20:22.349Z,101601.23
2017-08-13T06:22:51.118Z,101600.09
2017-08-13T06:25:19.492Z,101601.91
2017-08-13T06:27:47.850Z,101605.65
2017-08-13T06:30:16.486Z,101612.39
2017-08-13T06:32:44.868Z,101612.08
2017-08-13T06:35:13.224Z,101614.70
2017-08-13T06:37:41.904Z,101615.19
2017-08-13T06:40:10.275Z,101623.93
2017-08-13T06:42:38.629Z,101623.70
2017-08-13T06:45:07.337Z,101631.05
2017-08-13T06:47:35.679Z,101641.34
2017-08-13T06:50:04.053Z,101643.31
2017-08-13T06:52:32.742Z,101641.59
2017-08-13T06:55:01.110Z,101648.69
2017-08-13T06:57:29.473Z,101649.64
2017-08-13T06:59:59.091Z,101648.92
2017-08-13T07:02:27.467Z,101647.66
2017-08-13T07:04:56.576Z,101653.16
2017-08-13T07:07:26.149Z,101650.92
2017-08-13T07:09:54.519Z,101651.34
2017-08-13T07:12:22.879Z,101655.47
2017-08-13T07:14:51.651Z,101658.41
2017-08-13T07:17:20.002Z,101656.03
2017-08-13T07:19:49.167Z,101663.78
2017-08-13T07:22:18.146Z,101665.48
2017-08-13T07:24:46.518Z,101664.95
2017-08-13T07:27:14.911Z,101668.45
2017-08-13T07:29:43.664Z,101671.30
2017-08-13T07:32:12.103Z,101673.66
2017-08-13T07:34:40.470Z,101666.76
2017-08-13T07:37:09.746Z,101670.69
2017-08-13T07:39:38.125Z,101670.78
2017-08-13T07:42:06.499Z,101680.75
2017-08-13T07:44:35.189Z,101687.22
2017-08-13T07:47:03.605Z,101686.26
2017-08-13T07:49:31.976Z,101692.88
2017-08-13T07:52:00.875Z,101695.84
2017-08-13T07:54:29.284Z,101698.26
2017-08-13T07:56:57.681Z,101695.55
2017-08-13T07:59:26.585Z,101701.27
2017-08-13T08:01:54.982Z,101705.61
2017-08-13T08:04:23.384Z,101703.69
2017-08-13T08:06:52.324Z,101700.39
2017-08-13T08:09:20.683Z,101703.72
2017-08-13T08:11:49.024Z,101708.81
2017-08-13T08:14:18.097Z,101704.67
2017-08-13T08:16:46.459Z,101708.61
2017-08-13T08:19:14.879Z,101715.30
2017-08-13T08:21:43.653Z,101715.19
2017-08-13T08:24:12.004Z,101713.47
2017-08-13T08:26:40.502Z,101722.30
2017-08-13T08:29:09.374Z,101722.73
2017-08-13T08:31:37.734Z,101713.33
2017-08-13T08:36:46.130Z,101721.05
2017-08-13T08:39:14.536Z,101723.04
2017-08-13T08:41:42.919Z,101727.84
2017-08-13T08:44:11.596Z,101727.56
2017-08-13T08:46:39.982Z,101726.57
2017-08-13T08:49:08.407Z,101731.95
2017-08-13T08:51:37.220Z,101726.89
2017-08-13T08:54:05.571Z,101722.19
2017-08-13T08:56:33.933Z,101726.62
2017-08-13T08:59:02.785Z,101718.01
2017-08-13T09:01:31.191Z,101724.59
2017-08-13T09:03:59.593Z,101728.63
2017-08-13T09:06:28.323Z,101723.39
2017-08-13T09:08:56.676Z,101725.91
2017-08-13T09:11:25.022Z,101727.95
2017-08-13T09:13:53.922Z,101730.42
2017-08-13T09:16:22.287Z,101731.45
2017-08-13T09:18:51.419Z,101726.09
2017-08-13T09:21:20.437Z,101723.93
2017-08-13T09:23:48.792Z,101736.55
2017-08-13T09:26:17.140Z,101739.93
2017-08-13T09:28:46.039Z,101734.59
2017-08-13T09:31:14.375Z,101729.47
2017-08-13T09:33:42.740Z,101737.81
2017-08-13T09:36:11.393Z,101730.01
2017-08-13T09:38:39.787Z,101731.45
2017-08-13T09:41:08.138Z,101741.50
2017-08-13T09:43:37.135Z,101743.50
2017-08-13T09:46:05.519Z,101743.51
2017-08-13T09:48:33.898Z,101737.86
2017-08-13T09:51:02.806Z,101739.22
2017-08-13T09:53:31.167Z,101738.53
2017-08-13T09:55:59.525Z,101744.22
2017-08-13T09:58:28.190Z,101748.41
2017-08-13T10:00:56.555Z,101748.44
2017-08-13T10:03:24.968Z,101753.70
2017-08-13T10:05:54.051Z,101762.19
2017-08-13T10:08:22.444Z,101756.51
2017-08-13T10:10:51.586Z,101761.36
2017-08-13T10:13:20.357Z,101758.73
2017-08-13T10:15:48.730Z,101759.75
2017-08-13T10:18:17.129Z,101767.50
2017-08-13T10:20:46.211Z,101756.38
2017-08-13T10:23:14.584Z,101764.63
2017-08-13T10:25:42.944Z,101763.98
2017-08-13T10:28:11.858Z,101757.64
2017-08-13T10:30:40.214Z,101766.51
2017-08-13T10:33:09.364Z,101768.16
2017-08-13T10:35:38.026Z,101766.16
2017-08-13T10:38:06.400Z,101761.53
2017-08-13T10:40:34.822Z,101765.08
2017-08-13T10:43:03.559Z,101763.30
2017-08-13T10:45:31.919Z,101765.61
2017-08-13T10:48:00.278Z,101766.95
2017-08-13T10:50:29.207Z,101764.94
2017-08-13T10:52:57.562Z,101769.28
2017-08-13T10:55:25.924Z,101776.58
2017-08-13T10:57:54.698Z,101768.41
2017-08-13T11:00:23.024Z,101762.66
2017-08-13T11:02:51.399Z,101765.11
2017-08-13T11:05:20.079Z,101774.91
2017-08-13T11:07:48.427Z,101776.41
2017-08-13T11:10:16.770Z,101788.77
2017-08-13T11:12:45.491Z,101781.57
2017-08-13T11:15:13.849Z,101777.18
2017-08-13T11:17:42.233Z,101770.47
2017-08-13T11:20:10.999Z,101767.82
2017-08-13T11:22:39.368Z,101774.75
2017-08-13T11:25:07.718Z,101781.23
2017-08-13T11:27:36.429Z,101781.03
2017-08-13T11:30:04.792Z,101781.88
2017-08-13T11:32:33.918Z,101788.20
2017-08-13T11:35:02.698Z,101780.32
2017-08-13T11:37:31.083Z,101786.94
2017-08-13T11:39:59.457Z,101786.25
2017-08-13T11:42:28.104Z,101782.89
2017-08-13T11:44:56.451Z,101789.45
2017-08-13T11:47:24.815Z,101794.97
2017-08-13T11:49:53.604Z,101781.73
2017-08-13T11:52:21.974Z,101785.70
2017-08-13T11:54:50.352Z,101788.05
2017-08-13T11:57:19.060Z,101782.94
2017-08-13T11:59:47.422Z,101795.00
2017-08-13T12:02:15.816Z,101794.48
2017-08-13T12:04:44.465Z,101788.91
2017-08-13T12:07:12.983Z,101796.28
2017-08-13T12:09:41.455Z,101793.05
2017-08-13T12:12:10.375Z,101792.80
2017-08-13T12:14:38.722Z,101792.47
2017-08-13T12:17:07.095Z,101796.81
2017-08-13T12:19:35.996Z,101797.66
2017-08-13T12:22:04.449Z,101804.48
2017-08-13T12:24:32.850Z,101797.40
2017-08-13T12:27:01.661Z,101798.73
2017-08-13T12:29:30.040Z,101799.83
2017-08-13T12:31:58.460Z,101801.28
2017-08-13T12:34:27.160Z,101800.98
2017-08-13T12:36:56.288Z,101802.86
2017-08-13T12:39:24.646Z,101803.08
2017-08-13T12:41:53.564Z,101806.86
2017-08-13T12:44:21.932Z,101809.26
2017-08-13T12:46:50.322Z,101807.17
2017-08-13T12:49:19.111Z,101806.87
2017-08-13T12:51:47.512Z,101801.94
2017-08-13T12:54:15.894Z,101820.95
2017-08-13T12:56:44.527Z,101821.77
2017-08-13T12:59:13.669Z,101824.68
2017-08-13T13:01:42.047Z,101823.13
2017-08-13T13:04:10.928Z,101809.23
2017-08-13T13:06:39.283Z,101824.21
2017-08-13T13:09:07.662Z,101818.78
2017-08-13T13:11:36.554Z,101819.52
2017-08-13T13:14:05.003Z,101832.89
2017-08-13T13:16:33.377Z,101834.19
2017-08-13T13:19:02.003Z,101831.80
2017-08-13T13:21:30.346Z,101830.52
2017-08-13T13:23:58.692Z,101836.60
2017-08-13T13:26:27.492Z,101837.59
2017-08-13T13:28:55.844Z,101839.48
2017-08-13T13:31:24.208Z,101838.88
2017-08-13T13:33:52.820Z,101834.55
2017-08-13T13:36:21.240Z,101845.69
2017-08-13T13:38:49.618Z,101841.38
2017-08-13T13:41:18.271Z,101840.49
2017-08-13T13:43:46.621Z,101847.67
2017-08-13T13:46:14.983Z,101842.41
2017-08-13T13:48:44.043Z,101845.66
2017-08-13T13:51:12.397Z,101843.20
2017-08-13T13:53:40.754Z,101840.16
2017-08-13T13:56:09.381Z,101845.06
2017-08-13T13:58:37.761Z,101846.94
2017-08-13T14:01:06.100Z,101858.17
2017-08-13T14:03:34.878Z,101860.52
2017-08-13T14:06:03.258Z,101856.53
2017-08-13T14:08:31.625Z,101856.41
2017-08-13T14:11:00.540Z,101863.52
2017-08-13T14:13:28.902Z,101858.68
2017-08-13T14:15:57.266Z,101857.55
2017-08-13T14:18:26.075Z,101862.55
2017-08-13T14:20:54.449Z,101868.45
2017-08-13T14:23:22.827Z,101866.77
2017-08-13T14:25:51.605Z,101868.14
2017-08-13T14:28:19.968Z,101872.90
2017-08-13T14:30:48.350Z,101866.98
2017-08-13T14:33:17.152Z,101866.75
2017-08-13T14:35:46.273Z,101871.67
2017-08-13T14:38:14.696Z,101868.59
2017-08-13T14:40:43.386Z,101869.66
2017-08-13T14:43:11.770Z,101868.36
2017-08-13T14:45:40.148Z,101866.61
2017-08-13T14:48:09.203Z,101869.16
2017-08-13T14:50:37.620Z,101877.02
2017-08-13T14:53:05.967Z,101877.33
2017-08-13T14:55:34.748Z,101880.11
2017-08-13T14:58:03.158Z,101878.67
2017-08-13T15:00:31.507Z,101880.91
2017-08-13T15:03:00.184Z,101882.62
2017-08-13T15:05:28.547Z,101883.29
2017-08-13T15:07:56.915Z,101883.54
2017-08-13T15:10:25.584Z,101884.19
2017-08-13T15:12:53.941Z,101886.73
2017-08-13T15:15:22.307Z,101885.25
2017-08-13T15:17:51.142Z,101885.53
2017-08-13T15:20:19.500Z,101890.70
2017-08-13T15:22:47.865Z,101895.11
2017-08-13T15:25:16.627Z,101891.52
2017-08-13T15:27:44.974Z,101888.30
2017-08-13T15:30:13.350Z,101892.84
2017-08-13T15:32:42.042Z,101890.38
2017-08-13T15:35:10.429Z,101889.06
2017-08-13T15:37:38.801Z,101887.00
2017-08-13T15:40:07.924Z,101883.27
2017-08-13T15:42:36.250Z,101886.04
2017-08-13T15:45:04.604Z,101891.54
2017-08-13T15:47:33.412Z,101891.24
2017-08-13T15:50:02.103Z,101895.45
2017-08-13T15:52:30.486Z,101892.62
2017-08-13T15:54:59.241Z,101891.34
2017-08-13T15:57:27.618Z,101890.83
2017-08-13T15:59:56.011Z,101891.42
2017-08-13T16:02:24.740Z,101893.39
2017-08-13T16:04:53.952Z,101902.70
2017-08-13T16:07:22.331Z,101895.82
2017-08-13T16:09:51.802Z,101896.33
2017-08-13T16:12:20.156Z,101894.03
2017-08-13T16:14:48.536Z,101897.86
2017-08-13T16:17:17.230Z,101894.89
2017-08-13T16:19:45.577Z,101899.73
2017-08-13T16:22:13.956Z,101901.39
2017-08-13T16:24:42.826Z,101898.43
2017-08-13T16:27:11.186Z,101899.17
2017-08-13T16:29:39.520Z,101900.59
2017-08-13T16:32:08.308Z,101898.82
2017-08-13T16:34:36.673Z,101900.83
2017-08-13T16:37:05.024Z,101908.03
2017-08-13T16:39:33.912Z,101903.89
2017-08-13T16:42:02.248Z,101905.77
2017-08-13T16:44:30.590Z,101906.66
2017-08-13T16:46:59.301Z,101908.55
2017-08-13T16:49:27.674Z,101908.63
2017-08-13T16:51:56.037Z,101909.53
2017-08-13T16:54:24.704Z,101911.77
2017-08-13T16:56:53.111Z,101917.21
2017-08-13T16:59:21.473Z,101918.00
2017-08-13T17:01:51.087Z,101914.87
2017-08-13T17:04:19.460Z,101919.69
2017-08-13T17:06:58.217Z,101919.03
2017-08-13T17:09:26.598Z,101925.41
2017-08-13T17:11:54.983Z,101928.01
2017-08-13T17:14:23.631Z,101931.28
2017-08-13T17:16:51.976Z,101933.44
2017-08-13T17:19:20.358Z,101931.91
2017-08-13T17:21:49.029Z,101937.77
2017-08-13T17:24:17.383Z,101938.00
2017-08-13T17:26:45.759Z,101935.02
2017-08-13T17:29:14.583Z,101938.65
2017-08-13T17:31:42.931Z,101929.08
2017-08-13T17:34:11.276Z,101933.77
2017-08-13T17:36:39.921Z,101930.58
2017-08-13T17:39:08.293Z,101932.53
2017-08-13T17:41:36.647Z,101940.27
2017-08-13T17:44:05.307Z,101942.69
2017-08-13T17:46:33.660Z,101940.72
2017-08-13T17:49:02.020Z,101944.09
2017-08-13T17:51:30.874Z,101947.69
2017-08-13T17:53:59.229Z,101945.55
2017-08-13T17:56:27.599Z,101938.82
2017-08-13T17:58:57.257Z,101946.14
2017-08-13T18:01:25.651Z,101947.23
2017-08-13T18:03:54.039Z,101950.55
2017-08-13T18:06:22.676Z,101946.72
2017-08-13T18:08:51.015Z,101954.61
2017-08-13T18:11:19.389Z,101955.55
2017-08-13T18:13:48.346Z,101959.91
2017-08-13T18:16:16.709Z,101963.64
2017-08-13T18:18:45.064Z,101963.73
2017-08-13T18:21:13.733Z,101960.55
2017-08-13T18:23:42.102Z,101969.56
2017-08-13T18:26:10.449Z,101965.83
2017-08-13T18:28:39.253Z,101970.72
2017-08-13T18:31:07.620Z,101978.78
2017-08-13T18:33:36.001Z,101973.27
2017-08-13T18:36:04.897Z,101979.73
2017-08-13T18:38:33.273Z,101977.97
2017-08-13T18:41:01.652Z,101980.84
2017-08-13T18:43:30.306Z,101987.61
2017-08-13T18:45:58.683Z,101991.99
2017-08-13T18:48:27.061Z,101999.41
2017-08-13T18:50:55.787Z,102000.77
2017-08-13T18:53:24.142Z,102007.73
2017-08-13T18:55:52.504Z,102010.55
2017-08-13T18:58:21.353Z,102016.34
2017-08-13T19:00:49.718Z,102019.56
2017-08-13T19:03:18.087Z,102020.21
2017-08-13T19:05:46.856Z,102018.36
2017-08-13T19:08:15.266Z,102026.25
2017-08-13T19:10:43.658Z,102028.53
2017-08-13T19:13:12.531Z,102033.02
2017-08-13T19:15:40.941Z,102039.04
2017-08-13T19:18:09.319Z,102039.89
2017-08-13T19:20:38.058Z,102047.28
2017-08-13T19:23:06.412Z,102040.20
2017-08-13T19:25:34.757Z,102044.64
2017-08-13T19:28:03.602Z,102047.97
2017-08-13T19:30:32.000Z,102046.34
2017-08-13T19:33:00.387Z,102046.05
2017-08-13T19:35:29.099Z,102052.08
2017-08-13T19:37:57.434Z,102041.14
2017-08-13T19:40:25.799Z,102045.46
2017-08-13T19:42:54.625Z,102054.02
2017-08-13T19:45:22.991Z,102051.48
2017-08-13T19:47:51.356Z,102049.43
2017-08-13T19:50:20.140Z,102056.10
2017-08-13T19:52:48.631Z,102048.95
2017-08-13T19:55:17.011Z,102053.94
2017-08-13T19:57:45.795Z,102056.88
2017-08-13T20:00:14.162Z,102052.67
2017-08-13T20:02:42.512Z,102055.05
2017-08-13T20:05:11.210Z,102055.14
2017-08-13T20:07:39.639Z,102056.14
2017-08-13T20:10:08.001Z,102058.56
2017-08-13T20:12:36.710Z,102058.30
2017-08-13T20:15:05.120Z,102057.91
2017-08-13T20:17:33.493Z,102057.48
2017-08-13T20:20:02.182Z,102064.00
2017-08-13T20:22:30.564Z,102064.17
2017-08-13T20:24:58.927Z,102071.67
2017-08-13T20:27:27.695Z,102074.37
2017-08-13T20:29:56.072Z,102073.22
2017-08-13T20:32:24.443Z,102068.67
2017-08-13T20:34:53.138Z,102074.80
2017-08-13T20:37:21.501Z,102083.92
2017-08-13T20:39:49.857Z,102085.13
2017-08-13T20:42:19.496Z,102082.69
2017-08-13T20:44:47.862Z,102080.31
2017-08-13T20:47:16.208Z,102084.12
2017-08-13T20:49:45.183Z,102085.45
2017-08-13T20:52:13.554Z,102088.06
2017-08-13T20:54:42.038Z,102095.78
2017-08-13T20:57:10.800Z,102092.90
2017-08-13T20:59:39.164Z,102103.98
2017-08-13T21:02:07.510Z,102107.68
2017-08-13T21:04:36.188Z,102108.11
2017-08-13T21:07:04.539Z,102113.03
2017-08-13T21:09:32.934Z,102107.92
2017-08-13T21:12:01.810Z,102112.47
2017-08-13T21:14:30.164Z,102108.86
2017-08-13T21:16:58.541Z,102106.30
2017-08-13T21:19:27.167Z,102103.45
2017-08-13T21:21:55.511Z,102108.66
2017-08-13T21:24:23.850Z,102111.63
2017-08-13T21:26:52.540Z,102115.36
2017-08-13T21:29:20.898Z,102110.06
2017-08-13T21:31:49.253Z,102113.61
2017-08-13T21:34:18.212Z,102116.17
2017-08-13T21:36:46.571Z,102113.28
2017-08-13T21:39:15.688Z,102120.67
2017-08-13T21:41:44.328Z,102121.21
2017-08-13T21:44:12.672Z,102125.03
2017-08-13T21:46:41.063Z,102126.72
2017-08-13T21:49:10.572Z,102135.56
2017-08-13T21:51:38.926Z,102135.32
2017-08-13T21:54:07.338Z,102139.80
2017-08-13T21:56:36.208Z,102139.02
2017-08-13T21:59:04.569Z,102139.08
2017-08-13T22:01:32.913Z,102137.98
2017-08-13T22:04:01.640Z,102140.05
2017-08-13T22:06:30.014Z,102140.56
2017-08-13T22:08:58.396Z,102148.71
2017-08-13T22:11:27.291Z,102144.34
2017-08-13T22:13:55.688Z,102146.84
2017-08-13T22:16:24.052Z,102147.28
2017-08-13T22:18:52.809Z,102144.23
2017-08-13T22:21:21.934Z,102148.62
2017-08-13T22:23:50.346Z,102144.73
2017-08-13T22:26:19.206Z,102156.22
2017-08-13T22:28:47.556Z,102150.35
2017-08-13T22:31:16.677Z,102149.95
2017-08-13T22:33:45.458Z,102152.02
2017-08-13T22:36:13.819Z,102150.12
2017-08-13T22:38:42.962Z,102155.27
2017-08-13T22:41:11.793Z,102156.83
2017-08-13T22:43:40.166Z,102155.32
2017-08-13T22:46:08.500Z,102155.25
2017-08-13T22:48:37.366Z,102151.10
2017-08-13T22:51:05.733Z,102147.23
2017-08-13T22:53:34.842Z,102149.73
2017-08-13T22:56:04.304Z,102159.01
2017-08-13T22:58:32.657Z,102152.26
2017-08-13T23:01:16.028Z,102151.85
2017-08-13T23:03:44.409Z,102153.28
2017-08-13T23:06:12.802Z,102155.55
2017-08-13T23:08:42.211Z,102153.66
2017-08-13T23:11:10.619Z,102158.08
2017-08-13T23:13:38.972Z,102158.45
2017-08-13T23:16:07.887Z,102159.08
2017-08-13T23:18:36.260Z,102164.90
2017-08-13T23:21:04.646Z,102164.98
2017-08-13T23:23:33.826Z,102159.35
2017-08-13T23:26:02.158Z,102164.17
2017-08-13T23:28:30.489Z,102161.87
2017-08-13T23:30:59.170Z,102158.75
2017-08-13T23:33:27.536Z,102172.63
2017-08-13T23:35:56.657Z,102171.53
2017-08-13T23:38:25.367Z,102172.56
2017-08-13T23:40:53.711Z,102178.80
2017-08-13T23:43:22.064Z,102177.18
2017-08-13T23:45:51.085Z,102179.83
2017-08-13T23:48:19.447Z,102182.39
2017-08-13T23:50:48.559Z,102181.19
2017-08-13T23:53:17.348Z,102186.28
2017-08-13T23:55:45.699Z,102184.91
2017-08-13T23:58:14.819Z,102183.19
